createdAt,value
2023-03-16T00:00:56.595Z,4.00
2023-03-16T00:03:25.822Z,4.00
2023-03-16T00:05:54.763Z,4.00
2023-03-16T00:08:22.558Z,4.00
2023-03-16T00:10:50.362Z,4.00
2023-03-16T00:13:19.197Z,4.00
2023-03-16T00:15:51.494Z,3.90
2023-03-16T00:18:19.343Z,3.90
2023-03-16T00:20:51.686Z,3.90
2023-03-16T00:23:19.779Z,3.80
2023-03-16T00:25:47.515Z,3.80
2023-03-16T00:28:15.293Z,3.80
2023-03-16T00:30:47.397Z,3.80
2023-03-16T00:33:16.691Z,3.90
2023-03-16T00:35:50.167Z,3.80
2023-03-16T00:38:18.560Z,3.80
2023-03-16T00:40:46.967Z,3.80
2023-03-16T00:43:18.527Z,3.70
2023-03-16T00:45:46.756Z,3.70
2023-03-16T00:48:14.561Z,3.70
2023-03-16T00:50:43.316Z,3.60
2023-03-16T00:53:12.467Z,3.60
2023-03-16T00:55:40.202Z,3.60
2023-03-16T00:58:08.073Z,3.60
2023-03-16T01:00:36.134Z,3.60
2023-03-16T01:03:04.004Z,3.50
2023-03-16T01:05:33.412Z,3.50
2023-03-16T01:08:02.645Z,3.50
2023-03-16T01:10:31.860Z,3.50
2023-03-16T01:12:59.640Z,3.50
2023-03-16T01:15:27.445Z,3.50
2023-03-16T01:17:55.347Z,3.50
2023-03-16T01:20:23.380Z,3.50
2023-03-16T01:22:51.108Z,3.40
2023-03-16T01:25:19.153Z,3.50
2023-03-16T01:27:48.400Z,3.40
2023-03-16T01:30:16.339Z,3.40
2023-03-16T01:32:44.538Z,3.30
2023-03-16T01:35:12.467Z,3.30
2023-03-16T01:37:40.235Z,3.30
2023-03-16T01:40:10.331Z,3.30
2023-03-16T01:42:46.290Z,3.30
2023-03-16T01:45:52.632Z,3.30
2023-03-16T01:48:24.758Z,3.20
2023-03-16T01:50:54.270Z,3.20
2023-03-16T01:53:24.103Z,3.20
2023-03-16T01:55:55.158Z,3.20
2023-03-16T01:58:23.532Z,3.20
2023-03-16T02:00:51.321Z,3.20
2023-03-16T02:03:21.864Z,3.10
2023-03-16T02:05:54.210Z,3.10
2023-03-16T02:08:23.859Z,3.20
2023-03-16T02:10:54.512Z,3.10
2023-03-16T02:13:23.471Z,3.00
2023-03-16T02:15:52.660Z,3.00
2023-03-16T02:18:23.204Z,3.00
2023-03-16T02:20:57.824Z,2.90
2023-03-16T02:23:26.878Z,2.90
2023-03-16T02:26:02.537Z,2.90
2023-03-16T02:28:38.880Z,2.90
2023-03-16T02:31:08.192Z,2.90
2023-03-16T02:33:36.679Z,2.90
2023-03-16T02:36:04.676Z,2.80
2023-03-16T02:38:32.516Z,2.90
2023-03-16T02:41:10.119Z,2.80
2023-03-16T02:43:41.287Z,2.90
2023-03-16T02:46:10.789Z,2.70
2023-03-16T02:48:45.258Z,2.70
2023-03-16T02:51:13.272Z,2.70
2023-03-16T02:53:41.042Z,2.70
2023-03-16T02:56:09.373Z,2.70
2023-03-16T02:58:37.486Z,2.60
2023-03-16T03:01:05.395Z,2.60
2023-03-16T03:03:34.951Z,2.60
2023-03-16T03:06:03.092Z,2.60
2023-03-16T03:08:32.732Z,2.60
2023-03-16T03:11:00.750Z,2.60
2023-03-16T03:13:28.632Z,2.60
2023-03-16T03:15:56.427Z,2.50
2023-03-16T03:18:25.092Z,2.50
2023-03-16T03:20:54.572Z,2.50
2023-03-16T03:23:22.379Z,2.50
2023-03-16T03:25:50.131Z,2.50
2023-03-16T03:28:17.912Z,2.50
2023-03-16T03:30:45.682Z,2.50
2023-03-16T03:33:13.721Z,2.40
2023-03-16T03:35:42.890Z,2.40
2023-03-16T03:38:12.062Z,2.40
2023-03-16T03:40:39.894Z,2.40
2023-03-16T03:43:07.674Z,2.30
2023-03-16T03:45:35.528Z,2.30
2023-03-16T03:48:03.302Z,2.30
2023-03-16T03:50:31.057Z,2.30
2023-03-16T03:52:58.834Z,2.30
2023-03-16T03:55:27.993Z,2.30
2023-03-16T03:57:55.766Z,2.30
2023-03-16T04:00:23.644Z,2.30
2023-03-16T04:02:51.707Z,2.20
2023-03-16T04:05:19.770Z,2.30
2023-03-16T04:07:48.122Z,2.20
2023-03-16T04:10:15.932Z,2.20
2023-03-16T04:12:45.050Z,2.20
2023-03-16T04:15:13.508Z,2.20
2023-03-16T04:17:41.288Z,2.20
2023-03-16T04:20:14.398Z,2.20
2023-03-16T04:22:43.454Z,2.10
2023-03-16T04:25:11.698Z,2.10
2023-03-16T04:27:39.461Z,2.10
2023-03-16T04:30:12.165Z,2.10
2023-03-16T04:32:41.524Z,2.10
2023-03-16T04:35:10.570Z,2.00
2023-03-16T04:37:38.550Z,2.00
2023-03-16T04:40:15.281Z,2.00
2023-03-16T04:42:43.769Z,2.00
2023-03-16T04:45:13.964Z,2.00
2023-03-16T04:47:42.180Z,2.00
2023-03-16T04:50:12.086Z,2.00
2023-03-16T04:52:40.176Z,1.90
2023-03-16T04:55:08.845Z,1.90
2023-03-16T04:57:36.708Z,1.90
2023-03-16T05:00:11.663Z,1.90
2023-03-16T05:02:41.737Z,1.90
2023-03-16T05:05:10.261Z,1.90
2023-03-16T05:07:38.014Z,1.90
2023-03-16T05:10:06.359Z,1.90
2023-03-16T05:12:34.133Z,1.80
2023-03-16T05:15:02.111Z,1.80
2023-03-16T05:17:29.940Z,1.80
2023-03-16T05:19:59.076Z,1.80
2023-03-16T05:22:26.964Z,1.80
2023-03-16T05:24:54.730Z,1.80
2023-03-16T05:27:22.490Z,1.80
2023-03-16T05:29:50.290Z,1.80
2023-03-16T05:32:18.041Z,1.80
2023-03-16T05:34:45.777Z,1.80
2023-03-16T05:37:14.946Z,1.80
2023-03-16T05:39:43.180Z,1.80
2023-03-16T05:42:11.182Z,1.90
2023-03-16T05:44:39.148Z,2.00
2023-03-16T05:47:07.306Z,2.00
2023-03-16T05:49:35.162Z,1.90
2023-03-16T05:52:04.104Z,2.00
2023-03-16T05:54:33.338Z,2.00
2023-03-16T05:57:01.240Z,2.00
2023-03-16T05:59:29.011Z,2.00
2023-03-16T06:01:56.773Z,2.00
2023-03-16T06:04:24.598Z,2.00
2023-03-16T06:06:52.353Z,1.90
2023-03-16T06:09:20.192Z,1.80
2023-03-16T06:11:49.371Z,1.90
2023-03-16T06:14:17.140Z,2.00
2023-03-16T06:16:45.017Z,2.20
2023-03-16T06:19:13.423Z,2.60
2023-03-16T06:21:41.221Z,2.70
2023-03-16T06:24:09.309Z,2.50
2023-03-16T06:26:37.473Z,2.70
2023-03-16T06:29:06.769Z,2.90
2023-03-16T06:31:34.624Z,3.10
2023-03-16T06:34:02.441Z,3.00
2023-03-16T06:36:30.234Z,3.40
2023-03-16T06:38:57.965Z,3.90
2023-03-16T06:41:25.792Z,4.40
2023-03-16T06:43:54.136Z,5.40
2023-03-16T06:46:23.397Z,5.90
2023-03-16T06:48:51.223Z,5.30
2023-03-16T06:51:18.995Z,5.50
2023-03-16T06:53:46.777Z,5.50
2023-03-16T06:56:14.546Z,4.90
2023-03-16T06:58:42.589Z,5.60
2023-03-16T07:01:10.399Z,5.20
2023-03-16T07:03:39.577Z,4.60
2023-03-16T07:06:08.668Z,4.30
2023-03-16T07:08:36.673Z,4.20
2023-03-16T07:11:04.563Z,4.20
2023-03-16T07:13:32.378Z,4.20
2023-03-16T07:16:00.411Z,4.00
2023-03-16T07:18:30.156Z,3.90
2023-03-16T07:20:59.804Z,3.90
2023-03-16T07:23:27.546Z,4.30
2023-03-16T07:25:55.412Z,3.70
2023-03-16T07:28:23.223Z,4.90
2023-03-16T07:31:03.025Z,4.30
2023-03-16T07:33:32.214Z,4.00
2023-03-16T07:36:04.215Z,3.90
2023-03-16T07:38:33.386Z,3.60
2023-03-16T07:41:01.502Z,3.70
2023-03-16T07:43:30.163Z,3.90
2023-03-16T07:45:57.994Z,3.60
2023-03-16T07:48:25.944Z,4.10
2023-03-16T07:50:54.107Z,3.70
2023-03-16T07:53:23.511Z,3.40
2023-03-16T07:55:51.298Z,3.40
2023-03-16T07:58:19.164Z,3.60
2023-03-16T08:00:46.904Z,3.90
2023-03-16T08:03:14.825Z,4.30
2023-03-16T08:05:42.640Z,3.90
2023-03-16T08:08:10.382Z,4.00
2023-03-16T08:10:39.507Z,3.90
2023-03-16T08:13:07.308Z,3.80
2023-03-16T08:15:35.201Z,4.00
2023-03-16T08:18:03.299Z,3.90
2023-03-16T08:20:31.588Z,4.20
2023-03-16T08:22:59.874Z,3.80
2023-03-16T08:25:27.712Z,3.00
2023-03-16T08:27:58.029Z,2.90
2023-03-16T08:30:26.801Z,3.60
2023-03-16T08:32:54.917Z,3.50
2023-03-16T08:35:22.805Z,4.30
2023-03-16T08:37:50.722Z,4.10
2023-03-16T08:40:20.997Z,4.50
2023-03-16T08:42:50.100Z,4.70
2023-03-16T08:45:19.888Z,3.50
2023-03-16T08:47:47.725Z,2.90
2023-03-16T08:50:15.620Z,3.50
2023-03-16T08:52:43.544Z,2.90
2023-03-16T08:55:13.165Z,3.50
2023-03-16T08:57:40.971Z,3.50
2023-03-16T09:00:13.329Z,4.20
2023-03-16T09:02:43.466Z,5.00
2023-03-16T09:05:12.946Z,4.70
2023-03-16T09:07:40.812Z,5.00
2023-03-16T09:10:13.164Z,4.20
2023-03-16T09:12:41.487Z,3.90
2023-03-16T09:15:12.101Z,4.40
2023-03-16T09:17:41.550Z,4.90
2023-03-16T09:20:22.273Z,3.80
2023-03-16T09:22:54.472Z,5.30
2023-03-16T09:25:22.324Z,5.60
2023-03-16T09:27:50.732Z,4.30
2023-03-16T09:30:18.939Z,5.20
2023-03-16T09:32:48.749Z,4.70
2023-03-16T09:35:18.720Z,4.50
2023-03-16T09:38:04.862Z,4.90
2023-03-16T09:40:35.823Z,4.40
2023-03-16T09:43:37.614Z,4.40
2023-03-16T09:46:12.377Z,5.30
2023-03-16T09:48:40.998Z,5.70
2023-03-16T09:51:19.645Z,5.80
2023-03-16T09:53:48.448Z,5.70
2023-03-16T09:56:23.264Z,5.50
2023-03-16T09:58:51.139Z,6.20
2023-03-16T10:01:28.426Z,5.70
2023-03-16T10:04:07.999Z,5.30
2023-03-16T10:06:55.759Z,5.90
2023-03-16T10:09:34.023Z,6.50
2023-03-16T10:12:03.838Z,6.30
2023-03-16T10:14:39.607Z,6.70
2023-03-16T10:17:14.598Z,6.80
2023-03-16T10:19:46.584Z,6.20
2023-03-16T10:22:21.561Z,6.50
2023-03-16T10:25:02.020Z,6.00
2023-03-16T10:27:31.958Z,6.50
2023-03-16T10:30:01.108Z,6.30
2023-03-16T10:32:34.482Z,6.20
2023-03-16T10:35:09.714Z,6.00
2023-03-16T10:37:39.119Z,6.60
2023-03-16T10:40:12.318Z,6.80
2023-03-16T10:42:41.544Z,6.00
2023-03-16T10:45:24.048Z,6.50
2023-03-16T10:47:51.871Z,6.70
2023-03-16T10:50:27.630Z,6.60
2023-03-16T10:52:58.261Z,6.30
2023-03-16T10:55:30.590Z,5.90
2023-03-16T10:57:58.810Z,5.80
2023-03-16T11:00:29.961Z,6.40
2023-03-16T11:03:01.132Z,6.10
2023-03-16T11:05:32.446Z,6.90
2023-03-16T11:08:09.305Z,6.00
2023-03-16T11:10:49.332Z,6.60
2023-03-16T11:13:22.631Z,6.60
2023-03-16T11:15:55.720Z,7.60
2023-03-16T11:18:30.783Z,7.40
2023-03-16T11:21:02.836Z,6.60
2023-03-16T11:23:35.491Z,7.00
2023-03-16T11:26:08.694Z,7.40
2023-03-16T11:28:38.950Z,7.40
2023-03-16T11:31:16.814Z,6.40
2023-03-16T11:33:44.765Z,7.20
2023-03-16T11:36:27.754Z,7.20
2023-03-16T11:39:05.726Z,6.80
2023-03-16T11:41:41.099Z,7.00
2023-03-16T11:44:15.526Z,7.10
2023-03-16T11:46:49.096Z,6.80
2023-03-16T11:49:45.986Z,6.30
2023-03-16T11:52:20.505Z,7.00
2023-03-16T11:55:01.215Z,9.00
2023-03-16T11:57:41.782Z,7.60
2023-03-16T12:00:32.215Z,7.40
2023-03-16T12:03:36.498Z,8.10
2023-03-16T12:06:23.367Z,7.50
2023-03-16T12:09:06.358Z,6.80
2023-03-16T12:11:42.319Z,7.20
2023-03-16T12:14:19.853Z,8.50
2023-03-16T12:16:54.994Z,8.50
2023-03-16T12:19:28.464Z,7.70
2023-03-16T12:22:04.691Z,7.60
2023-03-16T12:24:39.899Z,8.00
2023-03-16T12:27:15.927Z,8.30
2023-03-16T12:29:55.458Z,7.60
2023-03-16T12:32:33.758Z,7.50
2023-03-16T12:35:07.467Z,7.70
2023-03-16T12:37:41.330Z,7.90
2023-03-16T12:40:26.977Z,8.40
2023-03-16T12:43:18.677Z,8.20
2023-03-16T12:45:58.522Z,7.80
2023-03-16T12:48:29.850Z,8.10
2023-03-16T12:51:02.307Z,7.90
2023-03-16T12:53:42.214Z,8.00
2023-03-16T12:56:12.096Z,7.90
2023-03-16T12:58:48.438Z,7.80
2023-03-16T13:01:19.834Z,8.10
2023-03-16T13:03:50.498Z,8.10
2023-03-16T13:06:21.423Z,8.10
2023-03-16T13:08:53.917Z,8.00
2023-03-16T13:11:21.799Z,8.10
2023-03-16T13:13:53.553Z,8.50
2023-03-16T13:16:28.430Z,8.70
2023-03-16T13:18:56.927Z,8.80
2023-03-16T13:21:37.049Z,8.80
2023-03-16T13:24:26.403Z,8.20
2023-03-16T13:26:58.986Z,8.50
2023-03-16T13:29:30.008Z,8.80
2023-03-16T13:31:59.581Z,8.70
2023-03-16T13:34:30.625Z,8.60
2023-03-16T13:37:01.480Z,8.50
2023-03-16T13:39:30.880Z,8.40
2023-03-16T13:42:00.774Z,8.90
2023-03-16T13:44:30.506Z,8.80
2023-03-16T13:46:58.822Z,8.60
2023-03-16T13:49:27.535Z,9.10
2023-03-16T13:51:55.481Z,9.10
2023-03-16T13:54:26.592Z,9.10
2023-03-16T13:56:57.296Z,9.00
2023-03-16T13:59:25.712Z,9.00
2023-03-16T14:01:59.498Z,9.30
2023-03-16T14:04:30.735Z,8.90
2023-03-16T14:07:00.335Z,9.00
2023-03-16T14:09:30.628Z,8.90
2023-03-16T14:11:58.734Z,9.00
2023-03-16T14:14:30.694Z,8.80
2023-03-16T14:17:05.572Z,8.90
2023-03-16T14:19:42.323Z,8.80
2023-03-16T14:22:19.106Z,8.90
2023-03-16T14:24:53.630Z,8.90
2023-03-16T14:27:26.627Z,9.00
2023-03-16T14:30:00.500Z,9.10
2023-03-16T14:32:30.993Z,8.90
2023-03-16T14:35:12.896Z,9.00
2023-03-16T14:37:41.720Z,9.00
2023-03-16T14:40:23.390Z,8.80
2023-03-16T14:42:52.081Z,8.90
2023-03-16T14:45:21.716Z,8.90
2023-03-16T14:47:53.641Z,8.90
2023-03-16T14:50:26.096Z,9.00
2023-03-16T14:52:57.370Z,9.10
2023-03-16T14:55:25.772Z,9.10
2023-03-16T14:57:53.868Z,9.00
2023-03-16T15:00:23.216Z,8.90
2023-03-16T15:03:01.455Z,9.10
2023-03-16T15:05:36.585Z,8.90
2023-03-16T15:08:06.557Z,9.10
2023-03-16T15:10:36.910Z,8.90
2023-03-16T15:13:16.107Z,9.10
2023-03-16T15:15:44.087Z,8.90
2023-03-16T15:18:13.323Z,8.80
2023-03-16T15:20:43.393Z,8.80
2023-03-16T15:23:17.117Z,8.80
2023-03-16T15:25:45.999Z,8.80
2023-03-16T15:28:17.187Z,8.60
2023-03-16T15:30:46.025Z,8.50
2023-03-16T15:33:15.732Z,8.40
2023-03-16T15:35:44.203Z,8.50
2023-03-16T15:38:16.451Z,8.60
2023-03-16T15:40:45.795Z,8.60
2023-03-16T15:43:14.972Z,8.50
2023-03-16T15:45:43.413Z,8.60
2023-03-16T15:48:11.759Z,8.60
2023-03-16T15:50:43.132Z,8.50
2023-03-16T15:53:29.619Z,8.40
2023-03-16T15:56:03.037Z,8.30
2023-03-16T15:58:32.395Z,8.30
2023-03-16T16:01:02.638Z,8.30
2023-03-16T16:03:30.961Z,8.20
2023-03-16T16:06:00.306Z,8.10
2023-03-16T16:08:28.213Z,8.20
2023-03-16T16:10:57.270Z,8.10
2023-03-16T16:13:44.115Z,8.10
2023-03-16T16:16:15.366Z,8.10
2023-03-16T16:18:43.725Z,8.10
2023-03-16T16:21:17.696Z,8.10
2023-03-16T16:23:45.686Z,8.20
2023-03-16T16:26:34.260Z,8.10
2023-03-16T16:29:14.559Z,8.00
2023-03-16T16:31:42.779Z,7.90
2023-03-16T16:34:13.900Z,7.90
2023-03-16T16:36:43.202Z,7.90
2023-03-16T16:39:11.747Z,7.80
2023-03-16T16:41:40.989Z,7.90
2023-03-16T16:44:17.663Z,7.90
2023-03-16T16:46:45.490Z,7.90
2023-03-16T16:49:19.388Z,7.80
2023-03-16T16:51:48.559Z,7.70
2023-03-16T16:54:18.478Z,7.70
2023-03-16T16:56:47.271Z,7.70
2023-03-16T16:59:18.049Z,7.50
2023-03-16T17:01:46.730Z,7.50
2023-03-16T17:04:16.468Z,7.40
2023-03-16T17:06:44.722Z,7.30
2023-03-16T17:09:14.888Z,7.40
2023-03-16T17:11:44.457Z,7.30
2023-03-16T17:14:17.923Z,7.40
2023-03-16T17:16:47.587Z,7.30
2023-03-16T17:19:21.501Z,7.20
2023-03-16T17:21:49.917Z,7.20
2023-03-16T17:24:19.197Z,7.10
2023-03-16T17:26:48.870Z,7.00
2023-03-16T17:29:20.974Z,7.00
2023-03-16T17:31:51.258Z,6.90
2023-03-16T17:34:21.373Z,7.10
2023-03-16T17:36:49.742Z,7.00
2023-03-16T17:39:21.790Z,6.90
2023-03-16T17:41:51.945Z,6.90
2023-03-16T17:44:21.280Z,6.70
2023-03-16T17:46:49.367Z,6.60
2023-03-16T17:49:19.822Z,6.60
2023-03-16T17:51:48.055Z,6.80
2023-03-16T17:54:16.348Z,7.00
2023-03-16T17:56:47.312Z,6.70
2023-03-16T17:59:18.275Z,6.60
2023-03-16T18:01:46.952Z,6.60
2023-03-16T18:04:17.664Z,6.70
2023-03-16T18:06:47.174Z,6.60
2023-03-16T18:09:15.728Z,6.70
2023-03-16T18:11:47.586Z,6.50
2023-03-16T18:14:25.258Z,6.70
2023-03-16T18:16:54.453Z,6.70
2023-03-16T18:19:25.581Z,6.70
2023-03-16T18:21:54.580Z,6.40
2023-03-16T18:24:25.692Z,6.20
2023-03-16T18:26:55.105Z,6.70
2023-03-16T18:29:23.869Z,7.10
2023-03-16T18:31:55.036Z,7.00
2023-03-16T18:34:25.113Z,7.00
2023-03-16T18:36:54.767Z,6.70
2023-03-16T18:39:23.184Z,6.20
2023-03-16T18:41:54.280Z,6.10
2023-03-16T18:44:24.287Z,6.10
2023-03-16T18:46:57.357Z,6.30
2023-03-16T18:49:32.727Z,6.50
2023-03-16T18:52:00.793Z,6.30
2023-03-16T18:54:31.724Z,6.40
2023-03-16T18:57:04.088Z,6.50
2023-03-16T18:59:32.196Z,6.00
2023-03-16T19:02:00.442Z,6.10
2023-03-16T19:04:32.649Z,6.30
2023-03-16T19:07:00.688Z,6.60
2023-03-16T19:09:30.087Z,6.50
2023-03-16T19:12:00.166Z,6.40
2023-03-16T19:14:31.542Z,5.90
2023-03-16T19:16:59.803Z,5.90
2023-03-16T19:19:27.740Z,6.00
2023-03-16T19:21:57.901Z,6.10
2023-03-16T19:24:28.307Z,6.40
2023-03-16T19:26:56.787Z,6.30
2023-03-16T19:29:30.765Z,6.60
2023-03-16T19:31:59.611Z,6.10
2023-03-16T19:34:27.542Z,6.20
2023-03-16T19:36:55.489Z,6.40
2023-03-16T19:39:23.289Z,6.60
2023-03-16T19:41:56.340Z,6.50
2023-03-16T19:44:27.579Z,6.30
2023-03-16T19:46:56.015Z,6.30
2023-03-16T19:49:25.936Z,6.50
2023-03-16T19:51:56.151Z,6.30
2023-03-16T19:54:25.952Z,6.50
2023-03-16T19:56:55.802Z,5.90
2023-03-16T19:59:35.436Z,6.20
2023-03-16T20:02:03.291Z,6.40
2023-03-16T20:04:31.374Z,6.50
2023-03-16T20:06:59.167Z,6.50
2023-03-16T20:09:27.275Z,6.50
2023-03-16T20:11:55.033Z,6.40
2023-03-16T20:14:30.145Z,6.40
2023-03-16T20:16:59.549Z,5.90
2023-03-16T20:19:27.410Z,6.10
2023-03-16T20:21:55.203Z,5.80
2023-03-16T20:24:23.878Z,5.30
2023-03-16T20:26:53.891Z,5.10
2023-03-16T20:29:27.573Z,5.50
2023-03-16T20:31:55.562Z,5.40
2023-03-16T20:34:27.340Z,5.40
2023-03-16T20:36:55.738Z,5.50
2023-03-16T20:39:23.701Z,5.60
2023-03-16T20:41:52.069Z,5.40
2023-03-16T20:44:21.797Z,5.60
2023-03-16T20:46:49.889Z,5.30
2023-03-16T20:49:32.282Z,5.00
2023-03-16T20:52:00.431Z,5.60
2023-03-16T20:54:28.279Z,5.00
2023-03-16T20:56:56.124Z,5.10
2023-03-16T20:59:26.384Z,4.90
2023-03-16T21:01:55.535Z,4.80
2023-03-16T21:04:26.102Z,5.00
2023-03-16T21:06:56.666Z,4.80
2023-03-16T21:09:24.483Z,4.90
2023-03-16T21:11:52.980Z,4.60
2023-03-16T21:14:23.290Z,5.00
2023-03-16T21:16:52.313Z,5.50
2023-03-16T21:19:22.700Z,5.80
2023-03-16T21:21:51.298Z,5.80
2023-03-16T21:24:21.031Z,5.80
2023-03-16T21:26:49.051Z,5.80
2023-03-16T21:29:21.077Z,5.80
2023-03-16T21:31:49.337Z,5.60
2023-03-16T21:34:24.726Z,5.60
2023-03-16T21:36:52.643Z,5.60
2023-03-16T21:39:24.827Z,5.40
2023-03-16T21:41:53.391Z,5.50
2023-03-16T21:44:21.251Z,5.50
2023-03-16T21:46:49.556Z,5.60
2023-03-16T21:49:17.893Z,5.70
2023-03-16T21:51:45.687Z,5.60
2023-03-16T21:54:15.167Z,5.60
2023-03-16T21:56:44.600Z,5.60
2023-03-16T21:59:13.000Z,5.60
2023-03-16T22:01:54.607Z,5.50
2023-03-16T22:04:28.815Z,5.50
2023-03-16T22:06:56.708Z,5.60
2023-03-16T22:09:28.717Z,5.60
2023-03-16T22:11:57.786Z,5.50
2023-03-16T22:14:27.055Z,5.60
2023-03-16T22:16:55.344Z,5.60
2023-03-16T22:19:23.282Z,5.50
2023-03-16T22:21:51.462Z,5.50
2023-03-16T22:24:21.762Z,5.50
2023-03-16T22:26:50.606Z,5.50
2023-03-16T22:29:23.295Z,5.50
2023-03-16T22:31:53.540Z,5.50
2023-03-16T22:34:28.510Z,5.50
2023-03-16T22:36:57.359Z,5.40
2023-03-16T22:39:25.675Z,5.40
2023-03-16T22:41:53.572Z,5.40
2023-03-16T22:44:24.763Z,5.40
2023-03-16T22:46:52.594Z,5.30
2023-03-16T22:49:26.972Z,5.30
2023-03-16T22:51:57.713Z,5.20
2023-03-16T22:54:28.336Z,5.10
2023-03-16T22:56:56.327Z,5.20
2023-03-16T23:02:00.884Z,5.20
2023-03-16T23:04:32.234Z,5.20
2023-03-16T23:07:00.105Z,5.10
2023-03-16T23:09:28.798Z,5.10
2023-03-16T23:12:01.373Z,5.10
2023-03-16T23:14:33.589Z,5.10
2023-03-16T23:17:02.752Z,5.00
2023-03-16T23:19:32.813Z,5.00
2023-03-16T23:22:03.250Z,5.00
2023-03-16T23:24:31.077Z,5.00
2023-03-16T23:26:59.162Z,5.00
2023-03-16T23:29:27.950Z,5.40
2023-03-16T23:31:56.441Z,4.90
2023-03-16T23:34:26.695Z,4.90
2023-03-16T23:36:54.529Z,4.90
2023-03-16T23:39:22.305Z,4.80
2023-03-16T23:41:51.279Z,4.90
2023-03-16T23:44:22.858Z,4.80
2023-03-16T23:46:51.562Z,4.80
2023-03-16T23:49:22.298Z,4.80
2023-03-16T23:51:52.736Z,4.80
2023-03-16T23:54:23.008Z,4.80
2023-03-16T23:56:51.305Z,4.70
2023-03-16T23:59:20.760Z,4.70
